Time;durP1;ratioP1;P1;durP2;ratioP2;P2;SDS_P1;SDS_P2;PMS_P1;PMS_P2;Temp;Humidity;BMP_temperature;BMP_pressure;BME280_temperature;BME280_humidity;BME280_pressure;Samples;Min_cycle;Max_cycle;Signal;HPM_P1;HPM_P2
2022/03/15 00:00:34;;;;;;;9.45;8.43;;;;;;;19.64;39.67;103037.28;5033820;28;20400;-82
2022/03/15 00:03:02;;;;;;;10.35;9.27;;;;;;;19.64;39.45;103034.59;5017214;28;20082;-82
2022/03/15 00:05:30;;;;;;;10.90;9.77;;;;;;;19.64;39.43;103039.13;5032253;28;20076;-83
2022/03/15 00:08:00;;;;;;;9.68;8.73;;;;;;;19.65;39.33;103044.44;5033734;28;20042;-82
2022/03/15 00:10:27;;;;;;;11.75;9.60;;;;;;;19.64;39.29;103042.66;5033269;28;20045;-83
2022/03/15 00:12:56;;;;;;;12.48;9.63;;;;;;;19.64;39.40;103036.44;5033885;28;20385;-83
2022/03/15 00:15:25;;;;;;;12.30;9.77;;;;;;;19.64;39.32;103029.22;5033234;28;20408;-83
2022/03/15 00:17:53;;;;;;;14.82;9.45;;;;;;;19.64;39.38;103037.28;5031624;28;20052;-82
2022/03/15 00:20:23;;;;;;;11.77;9.05;;;;;;;19.66;39.31;103031.84;5031687;28;20049;-82
2022/03/15 00:22:52;;;;;;;10.93;9.18;;;;;;;19.65;39.34;103033.69;5033718;28;20052;-83
2022/03/15 00:25:19;;;;;;;11.18;8.77;;;;;;;19.65;39.30;103036.38;5031562;28;20420;-83
2022/03/15 00:27:52;;;;;;;10.43;9.38;;;;;;;19.65;39.04;103033.69;5031687;28;20045;-83
2022/03/15 00:30:22;;;;;;;11.43;9.45;;;;;;;19.65;39.24;103032.81;5033672;28;20041;-83
2022/03/15 00:32:52;;;;;;;10.93;9.02;;;;;;;19.66;39.25;103023.78;5032193;28;20064;-81
2022/03/15 00:35:23;;;;;;;10.43;9.30;;;;;;;19.66;39.14;103030.03;5032337;28;20056;-82
2022/03/15 00:37:53;;;;;;;9.93;8.93;;;;;;;19.66;39.12;103031.84;5033301;28;20045;-82
2022/03/15 00:40:23;;;;;;;12.48;9.70;;;;;;;19.66;38.97;103032.72;5032714;28;20053;-82
2022/03/15 00:42:52;;;;;;;11.02;9.90;;;;;;;19.67;39.20;103030.91;5032347;28;20061;-82
2022/03/15 00:45:28;;;;;;;10.80;9.70;;;;;;;19.68;39.00;103029.94;5032940;28;20345;-82
2022/03/15 00:47:57;;;;;;;10.88;9.35;;;;;;;19.68;38.95;103040.69;5034110;28;20067;-82
2022/03/15 00:50:29;;;;;;;11.80;9.70;;;;;;;19.68;39.04;103032.63;5034067;28;20073;-82
2022/03/15 00:52:56;;;;;;;9.98;8.88;;;;;;;19.68;39.01;103027.25;5031856;28;20057;-82
2022/03/15 00:55:24;;;;;;;10.60;9.45;;;;;;;19.68;38.91;103028.13;5037383;28;20052;-82
2022/03/15 00:57:51;;;;;;;10.73;9.35;;;;;;;19.69;38.79;103023.63;5035372;28;20049;-82
2022/03/15 01:00:20;;;;;;;10.20;9.20;;;;;;;19.69;38.81;103027.19;5036755;28;20053;-81
2022/03/15 01:02:49;;;;;;;10.85;9.40;;;;;;;19.70;38.81;103025.38;5035607;28;20056;-82
2022/03/15 01:05:18;;;;;;;11.40;9.20;;;;;;;19.72;38.64;103020.75;5037955;28;20401;-81
2022/03/15 01:07:45;;;;;;;10.65;9.40;;;;;;;19.71;38.56;103016.34;5035849;28;20053;-81
2022/03/15 01:10:13;;;;;;;14.75;9.65;;;;;;;19.70;38.76;103012.81;5037441;28;20056;-82
2022/03/15 01:12:41;;;;;;;11.38;9.15;;;;;;;19.70;38.68;103014.63;5036593;28;20512;-82
2022/03/15 01:15:09;;;;;;;10.70;8.95;;;;;;;19.69;38.54;103012.88;5035315;28;20061;-82
2022/03/15 01:17:36;;;;;;;10.70;8.95;;;;;;;19.69;38.66;103011.06;5036847;28;20049;-81
2022/03/15 01:20:06;;;;;;;10.05;8.93;;;;;;;19.69;38.59;103010.19;5037123;28;20042;-82
2022/03/15 01:22:36;;;;;;;10.40;9.05;;;;;;;19.70;38.55;103014.63;5035772;28;20421;-82
2022/03/15 01:25:06;;;;;;;12.82;9.27;;;;;;;19.69;38.42;103019.13;5037593;28;20045;-81
2022/03/15 01:27:36;;;;;;;11.00;8.77;;;;;;;19.70;38.46;103012.81;5036008;28;20045;-81
2022/03/15 01:30:06;;;;;;;9.43;8.52;;;;;;;19.68;38.45;103009.31;5036115;28;20046;-81
2022/03/15 01:32:34;;;;;;;10.85;9.45;;;;;;;19.70;38.49;103006.56;5036291;28;20045;-83
2022/03/15 01:35:03;;;;;;;10.90;9.18;;;;;;;19.70;38.54;103006.56;5035306;28;20060;-81
2022/03/15 01:37:31;;;;;;;10.30;9.05;;;;;;;19.69;38.21;103008.38;5036064;28;20053;-82
2022/03/15 01:40:06;;;;;;;9.10;8.18;;;;;;;19.70;38.21;103006.56;5036135;28;20048;-82
2022/03/15 01:42:34;;;;;;;10.35;8.85;;;;;;;19.69;38.44;103003.00;5035744;28;20064;-82
2022/03/15 01:45:03;;;;;;;10.45;8.60;;;;;;;19.70;38.19;103007.41;5035032;28;20488;-82
2022/03/15 01:47:32;;;;;;;12.18;9.43;;;;;;;19.71;38.31;103000.22;5034935;28;20053;-82
2022/03/15 01:50:02;;;;;;;10.40;8.38;;;;;;;19.70;38.25;103002.03;5034521;28;20053;-82
2022/03/15 01:52:29;;;;;;;9.30;8.30;;;;;;;19.71;38.25;103000.22;5034571;28;20072;-82
2022/03/15 01:54:57;;;;;;;11.35;9.95;;;;;;;19.70;38.42;102991.31;5035450;28;20050;-82
2022/03/15 01:57:24;;;;;;;10.05;8.73;;;;;;;19.69;38.33;102976.13;5035244;28;20558;-82
2022/03/15 01:59:53;;;;;;;9.73;8.32;;;;;;;19.72;38.25;102983.16;5034422;28;20056;-82
2022/03/15 02:02:21;;;;;;;10.30;8.52;;;;;;;19.70;38.09;102977.88;5035226;28;20052;-82
2022/03/15 02:04:50;;;;;;;9.70;8.70;;;;;;;19.71;38.18;102984.09;5035359;28;20501;-82
2022/03/15 02:07:18;;;;;;;9.55;8.60;;;;;;;19.72;38.03;102977.75;5034446;28;20049;-82
2022/03/15 02:09:45;;;;;;;10.23;8.77;;;;;;;19.73;38.15;102982.22;5034606;28;20057;-82
2022/03/15 02:12:14;;;;;;;10.60;9.50;;;;;;;19.72;38.21;102984.00;5035857;28;20037;-82
2022/03/15 02:14:41;;;;;;;9.35;8.45;;;;;;;19.72;38.01;102975.94;5035865;28;20049;-83
2022/03/15 02:17:08;;;;;;;10.65;9.55;;;;;;;19.71;38.04;102973.34;5035679;28;20049;-82
2022/03/15 02:19:37;;;;;;;9.38;8.45;;;;;;;19.73;38.17;102987.59;5035848;28;20045;-82
2022/03/15 02:22:05;;;;;;;9.90;8.40;;;;;;;19.72;38.24;102989.38;5035495;28;20042;-82
2022/03/15 02:24:34;;;;;;;9.32;8.35;;;;;;;19.72;38.15;102984.00;5035420;28;20485;-82
2022/03/15 02:27:02;;;;;;;10.98;8.43;;;;;;;19.71;38.15;102984.97;5036182;28;20041;-82
2022/03/15 02:29:29;;;;;;;9.80;8.80;;;;;;;19.73;38.06;102991.16;5035772;28;20068;-82
2022/03/15 02:31:57;;;;;;;9.50;8.50;;;;;;;19.72;38.27;102991.19;5036004;28;20046;-81
2022/03/15 02:34:25;;;;;;;10.25;8.23;;;;;;;19.71;38.14;102978.72;5035840;28;20041;-82
2022/03/15 02:36:53;;;;;;;9.27;8.32;;;;;;;19.70;38.14;102975.19;5035191;28;20053;-82
2022/03/15 02:39:21;;;;;;;9.40;8.40;;;;;;;19.73;38.22;102979.53;5035204;28;20049;-81
2022/03/15 02:41:50;;;;;;;9.15;8.07;;;;;;;19.72;38.15;102969.72;5034908;28;20049;-82
2022/03/15 02:44:18;;;;;;;9.90;8.90;;;;;;;19.71;38.21;102967.97;5035087;28;20404;-82
2022/03/15 02:46:52;;;;;;;9.25;8.38;;;;;;;19.71;38.11;102973.34;5033434;28;20053;-82
2022/03/15 02:49:19;;;;;;;8.68;7.88;;;;;;;19.71;38.20;102965.28;5034722;28;20049;-83
2022/03/15 02:51:47;;;;;;;10.30;8.50;;;;;;;19.72;38.16;102969.72;5033402;28;20053;-83
2022/03/15 02:54:16;;;;;;;9.55;8.65;;;;;;;19.72;38.22;102967.03;5035054;28;20056;-82
2022/03/15 02:56:46;;;;;;;10.05;9.02;;;;;;;19.73;38.06;102966.97;5035193;28;20048;-82
2022/03/15 02:59:14;;;;;;;11.35;8.52;;;;;;;19.73;38.05;102966.09;5034867;28;20398;-82
2022/03/15 03:01:43;;;;;;;9.20;7.95;;;;;;;19.73;37.85;102964.28;5034445;28;20387;-83
2022/03/15 03:04:11;;;;;;;10.20;8.52;;;;;;;19.74;38.01;102971.38;5034349;28;20076;-83
2022/03/15 03:06:41;;;;;;;9.52;8.52;;;;;;;19.74;37.90;102967.81;5034002;28;20056;-83
2022/03/15 03:09:11;;;;;;;9.00;8.10;;;;;;;19.73;38.09;102963.41;5032805;28;20052;-83
2022/03/15 03:11:39;;;;;;;9.30;8.10;;;;;;;19.72;37.86;102965.19;5036476;28;20041;-82
2022/03/15 03:14:06;;;;;;;9.52;8.48;;;;;;;19.74;37.86;102970.50;5036365;28;20409;-83
2022/03/15 03:16:36;;;;;;;10.30;8.60;;;;;;;19.72;37.92;102957.13;5046272;28;20060;-83
2022/03/15 03:19:07;;;;;;;9.88;8.30;;;;;;;19.72;38.04;102957.13;5054978;28;20045;-81
2022/03/15 03:21:36;;;;;;;11.55;8.88;;;;;;;19.72;38.09;102957.13;5051413;28;20388;-82
2022/03/15 03:24:09;;;;;;;8.50;7.68;;;;;;;19.72;38.16;102950.91;5050255;28;20051;-81
2022/03/15 03:26:38;;;;;;;;;;;;;;;19.72;38.04;102954.44;5036957;28;20425;-82
2022/03/15 03:29:10;;;;;;;9.18;8.10;;;;;;;19.72;37.91;102957.13;5034447;28;19921;-82
2022/03/15 03:31:39;;;;;;;11.27;8.20;;;;;;;19.71;37.89;102951.84;5033247;28;20049;-82
2022/03/15 03:34:08;;;;;;;10.18;7.78;;;;;;;19.70;38.09;102940.25;5034595;28;20061;-82
2022/03/15 03:36:36;;;;;;;9.95;8.25;;;;;;;19.71;37.97;102946.47;5032783;28;20056;-82
2022/03/15 03:39:22;;;;;;;9.50;8.45;;;;;;;19.71;37.54;102950.03;5034507;28;20469;-82
2022/03/15 03:41:50;;;;;;;8.90;8.00;;;;;;;19.71;38.00;102943.78;5032866;28;20408;-82
2022/03/15 03:44:17;;;;;;;10.68;8.60;;;;;;;19.70;37.90;102951.00;5032647;28;20049;-82
2022/03/15 03:46:45;;;;;;;10.00;8.38;;;;;;;19.72;37.79;102958.97;5033808;28;20056;-81
2022/03/15 03:49:13;;;;;;;9.20;7.93;;;;;;;19.70;38.08;102951.00;5034558;28;20052;-82
2022/03/15 03:51:41;;;;;;;9.18;8.15;;;;;;;19.71;37.69;102949.16;5034197;28;20053;-82
2022/03/15 03:54:08;;;;;;;8.60;7.78;;;;;;;19.71;37.80;102955.41;5033480;28;20056;-82
2022/03/15 03:56:35;;;;;;;9.77;7.53;;;;;;;19.71;37.70;102952.72;5033633;28;20053;-82
2022/03/15 03:59:03;;;;;;;9.55;8.40;;;;;;;19.72;37.70;102961.66;5034750;28;20057;-82
2022/03/15 04:01:30;;;;;;;9.55;7.30;;;;;;;19.72;37.71;102961.66;5033381;28;20041;-82
2022/03/15 04:04:05;;;;;;;8.35;7.45;;;;;;;19.72;37.60;102965.19;5033535;28;20057;-82
2022/03/15 04:06:33;;;;;;;12.20;8.00;;;;;;;19.73;37.80;102966.09;5033994;28;20060;-82
2022/03/15 04:09:02;;;;;;;10.07;8.18;;;;;;;19.72;37.82;102970.56;5033078;28;20044;-81
2022/03/15 04:11:31;;;;;;;9.85;7.50;;;;;;;19.72;37.81;102965.19;5032959;28;20050;-82
2022/03/15 04:13:59;;;;;;;11.05;7.85;;;;;;;19.72;37.49;102965.19;5032221;28;20045;-82
2022/03/15 04:16:30;;;;;;;8.88;8.07;;;;;;;19.72;37.65;102965.19;5033159;28;20042;-82
2022/03/15 04:18:57;;;;;;;9.02;7.70;;;;;;;19.72;37.59;102973.25;5033640;28;20113;-82
2022/03/15 04:21:25;;;;;;;9.98;7.95;;;;;;;19.72;37.85;102965.19;5032370;28;20045;-82
2022/03/15 04:23:54;;;;;;;8.95;7.70;;;;;;;19.73;37.90;102968.78;5033938;28;20065;-82
2022/03/15 04:26:25;;;;;;;8.40;7.40;;;;;;;19.72;37.71;102969.72;5033624;28;20046;-82
2022/03/15 04:28:54;;;;;;;9.85;8.00;;;;;;;19.72;37.83;102969.72;5037248;28;20072;-82
2022/03/15 04:31:22;;;;;;;8.73;7.80;;;;;;;19.72;37.88;102978.63;5037903;28;20049;-82
2022/03/15 04:33:50;;;;;;;8.52;7.38;;;;;;;19.72;37.80;102964.31;5037720;28;20041;-81
2022/03/15 04:36:18;;;;;;;17.65;8.88;;;;;;;19.70;37.95;102961.75;5037605;28;20470;-82
2022/03/15 04:38:47;;;;;;;8.93;7.78;;;;;;;19.72;37.84;102967.88;5037211;28;20056;-81
2022/03/15 04:41:14;;;;;;;12.70;7.65;;;;;;;19.72;37.88;102967.88;5035787;28;20057;-82
2022/03/15 04:43:41;;;;;;;9.95;7.47;;;;;;;19.72;37.81;102969.72;5035769;28;20413;-82
2022/03/15 04:46:09;;;;;;;10.25;8.65;;;;;;;19.72;37.61;102965.19;5037088;28;20413;-82
2022/03/15 04:48:39;;;;;;;9.80;7.78;;;;;;;19.72;37.75;102969.72;5037117;28;20508;-82
2022/03/15 04:51:20;;;;;;;10.90;8.38;;;;;;;19.72;37.59;102967.03;5037641;28;20037;-82
2022/03/15 04:54:14;;;;;;;9.52;7.55;;;;;;;19.71;37.54;102966.16;5037171;28;20053;-82
2022/03/15 04:56:43;;;;;;;10.57;7.93;;;;;;;19.70;37.65;102964.44;5036112;28;20054;-82
2022/03/15 04:59:10;;;;;;;9.10;8.00;;;;;;;19.70;37.68;102958.19;5037344;28;20057;-82
2022/03/15 05:01:38;;;;;;;8.35;7.55;;;;;;;19.69;37.67;102964.53;5036966;28;20057;-82
2022/03/15 05:04:05;;;;;;;7.68;6.90;;;;;;;19.70;37.66;102972.50;5036287;28;20046;-83
2022/03/15 05:06:33;;;;;;;9.90;7.97;;;;;;;19.70;37.74;102960.88;5036742;28;20068;-83
2022/03/15 05:09:00;;;;;;;7.75;6.95;;;;;;;19.71;37.73;102970.66;5036904;28;20045;-83
2022/03/15 05:11:28;;;;;;;7.97;7.18;;;;;;;19.70;37.49;102969.81;5036897;28;20048;-83
2022/03/15 05:13:55;;;;;;;9.50;7.45;;;;;;;19.70;37.68;102960.88;5037394;28;20103;-83
2022/03/15 05:16:22;;;;;;;9.27;7.80;;;;;;;19.70;37.74;102971.63;5035952;28;20049;-82
2022/03/15 05:18:54;;;;;;;9.77;7.47;;;;;;;19.70;37.61;102972.50;5036835;28;20052;-82
2022/03/15 05:21:25;;;;;;;8.30;7.50;;;;;;;19.70;37.74;102974.31;5018868;28;20434;-83
2022/03/15 05:23:54;;;;;;;10.10;7.35;;;;;;;19.72;37.70;102972.38;5037411;28;20481;-84
2022/03/15 05:26:22;;;;;;;8.10;6.95;;;;;;;19.70;37.76;102959.06;5036596;28;20049;-82
2022/03/15 05:28:51;;;;;;;7.85;7.10;;;;;;;19.70;37.74;102964.44;5034990;28;20053;-83
2022/03/15 05:31:22;;;;;;;7.80;7.10;;;;;;;19.69;37.78;102965.38;5036955;28;20469;-83
2022/03/15 05:33:56;;;;;;;7.90;6.93;;;;;;;19.69;37.83;102962.69;5035038;28;20050;-82
2022/03/15 05:36:24;;;;;;;7.95;7.13;;;;;;;19.70;37.86;102964.44;5036121;28;20051;-82
2022/03/15 05:38:51;;;;;;;7.55;6.85;;;;;;;19.71;37.76;102974.22;5035611;28;20500;-82
2022/03/15 05:41:18;;;;;;;9.52;7.35;;;;;;;19.70;37.91;102972.50;5036451;28;20481;-82
2022/03/15 05:43:55;;;;;;;9.40;7.00;;;;;;;19.69;38.05;102959.16;5036190;28;20086;-82
2022/03/15 05:46:23;;;;;;;9.13;7.50;;;;;;;19.69;37.92;102961.84;5034390;28;20048;-82
2022/03/15 05:48:52;;;;;;;7.22;6.30;;;;;;;19.70;38.03;102960.88;5035541;28;20481;-82
2022/03/15 05:51:20;;;;;;;9.70;7.32;;;;;;;19.69;38.29;102960.00;5036206;28;20045;-83
2022/03/15 05:53:47;;;;;;;6.88;6.18;;;;;;;19.70;37.96;102960.88;5035760;28;20072;-83
2022/03/15 05:56:15;;;;;;;8.63;6.82;;;;;;;19.69;37.86;102960.00;5037050;28;20045;-83
2022/03/15 05:58:46;;;;;;;8.80;6.82;;;;;;;19.69;38.07;102962.69;5035558;28;20053;-82
2022/03/15 06:01:16;;;;;;;8.77;6.93;;;;;;;19.68;37.99;102955.56;5034213;28;20057;-82
2022/03/15 06:03:44;;;;;;;10.18;7.38;;;;;;;19.69;37.76;102959.16;5035571;28;20408;-82
2022/03/15 06:06:12;;;;;;;7.53;6.82;;;;;;;19.68;37.95;102966.31;5036075;28;20045;-82
2022/03/15 06:08:39;;;;;;;8.43;7.63;;;;;;;19.69;37.91;102959.16;5036573;28;20045;-82
2022/03/15 06:11:07;;;;;;;7.82;7.03;;;;;;;19.68;37.91;102969.00;5035751;28;20052;-82
2022/03/15 06:13:34;;;;;;;9.13;7.10;;;;;;;19.69;38.04;102969.91;5035649;28;20393;-82
2022/03/15 06:16:01;;;;;;;7.40;6.55;;;;;;;19.67;37.93;102969.97;5035151;28;20045;-82
2022/03/15 06:18:29;;;;;;;7.60;6.90;;;;;;;19.67;37.96;102978.03;5034392;28;20064;-81
2022/03/15 06:20:56;;;;;;;8.50;7.35;;;;;;;19.67;37.88;102972.66;5034206;28;20049;-82
2022/03/15 06:23:24;;;;;;;8.77;6.70;;;;;;;19.67;37.99;102978.03;5035464;28;20042;-81
2022/03/15 06:25:51;;;;;;;7.65;7.00;;;;;;;19.67;37.91;102978.03;5035126;28;20397;-82
2022/03/15 06:28:19;;;;;;;8.05;6.97;;;;;;;19.67;37.87;102978.03;5034365;28;20477;-82
2022/03/15 06:30:46;;;;;;;7.82;6.75;;;;;;;19.68;37.89;102979.75;5036061;28;20042;-82
2022/03/15 06:33:16;;;;;;;8.55;7.22;;;;;;;19.67;37.77;102986.06;5035525;28;20037;-82
2022/03/15 06:35:46;;;;;;;7.95;7.03;;;;;;;19.68;38.05;102985.13;5034717;28;20482;-82
2022/03/15 06:38:13;;;;;;;7.15;6.43;;;;;;;19.68;37.90;102992.31;5034455;28;20401;-82
2022/03/15 06:40:42;;;;;;;7.35;6.65;;;;;;;19.69;38.05;102997.63;5034770;28;20041;-82
2022/03/15 06:43:12;;;;;;;7.32;6.63;;;;;;;19.68;37.96;102998.56;5034106;28;20049;-82
2022/03/15 06:45:41;;;;;;;7.35;6.63;;;;;;;19.69;37.88;102996.78;5033491;28;20057;-82
2022/03/15 06:48:09;;;;;;;8.30;7.20;;;;;;;19.68;37.88;102995.88;5035394;28;20045;-82
2022/03/15 06:50:36;;;;;;;7.45;6.70;;;;;;;19.68;37.88;102995.88;5035293;28;20056;-82
2022/03/15 06:53:04;;;;;;;7.63;6.82;;;;;;;19.69;37.95;102999.47;5035315;28;20393;-83
2022/03/15 06:55:32;;;;;;;8.93;7.55;;;;;;;19.69;37.93;103002.16;5035315;28;20072;-83
2022/03/15 06:58:00;;;;;;;8.25;7.28;;;;;;;19.68;37.85;102995.88;5033912;28;20057;-82
2022/03/15 07:00:28;;;;;;;9.20;7.30;;;;;;;19.69;38.00;102991.41;5035328;28;20053;-82
2022/03/15 07:02:55;;;;;;;8.25;7.32;;;;;;;19.69;38.06;102996.78;5034498;28;20045;-82
2022/03/15 07:05:23;;;;;;;8.40;7.57;;;;;;;19.69;37.83;103002.16;5034653;28;20354;-83
2022/03/15 07:07:50;;;;;;;7.05;6.40;;;;;;;19.68;37.96;103003.94;5034362;28;20060;-83
2022/03/15 07:10:19;;;;;;;7.97;6.72;;;;;;;19.69;37.93;103004.81;5033194;28;20053;-82
2022/03/15 07:12:47;;;;;;;7.13;6.43;;;;;;;19.68;38.02;102998.56;5034894;28;20069;-82
2022/03/15 07:15:14;;;;;;;8.77;7.78;;;;;;;19.68;37.98;103005.75;5032552;28;20060;-83
2022/03/15 07:17:52;;;;;;;10.82;7.55;;;;;;;19.67;38.05;103012.94;5034549;28;20052;-83
2022/03/15 07:20:20;;;;;;;7.82;7.03;;;;;;;19.68;38.10;103008.44;5035015;28;20041;-82
2022/03/15 07:22:48;;;;;;;7.20;6.50;;;;;;;19.68;38.07;103013.81;5035929;28;20056;-83
2022/03/15 07:25:16;;;;;;;8.75;6.88;;;;;;;19.66;38.05;103011.22;5033447;28;20044;-82
2022/03/15 07:27:43;;;;;;;9.20;7.28;;;;;;;19.67;37.96;103004.03;5034487;28;20041;-82
2022/03/15 07:30:11;;;;;;;7.60;6.85;;;;;;;19.66;38.01;103002.28;5033844;28;20049;-82
2022/03/15 07:32:39;;;;;;;6.85;6.22;;;;;;;19.66;38.03;103003.16;5033996;28;20053;-82
2022/03/15 07:35:07;;;;;;;8.90;7.35;;;;;;;19.66;38.17;103011.22;5034233;28;20050;-82
2022/03/15 07:37:35;;;;;;;8.73;7.72;;;;;;;19.67;38.29;103012.94;5033478;28;20056;-82
2022/03/15 07:40:04;;;;;;;8.43;6.60;;;;;;;19.68;38.26;103011.13;5033766;28;20049;-81
2022/03/15 07:42:33;;;;;;;10.82;6.85;;;;;;;19.68;38.37;103008.44;5016701;28;20049;-81
2022/03/15 07:45:00;;;;;;;7.65;6.95;;;;;;;19.69;38.44;103023.63;5032672;28;20045;-84
2022/03/15 07:47:27;;;;;;;8.50;6.68;;;;;;;19.68;38.08;103020.06;5034050;28;20052;-82
2022/03/15 07:49:55;;;;;;;7.80;6.97;;;;;;;19.69;38.29;103024.50;5033915;28;20052;-83
2022/03/15 07:52:22;;;;;;;7.43;6.35;;;;;;;19.70;38.29;103026.25;5033529;28;20461;-82
2022/03/15 07:54:49;;;;;;;7.75;6.80;;;;;;;19.70;38.28;103031.59;5032094;28;20056;-83
2022/03/15 07:57:17;;;;;;;7.90;6.95;;;;;;;19.71;38.22;103032.47;5033915;28;20052;-83
2022/03/15 07:59:46;;;;;;;7.60;6.78;;;;;;;19.70;38.18;103034.28;5033563;28;20054;-83
2022/03/15 08:02:15;;;;;;;7.93;7.13;;;;;;;19.71;38.31;103032.47;5032979;28;20504;-83
2022/03/15 08:04:43;;;;;;;7.82;6.35;;;;;;;19.70;38.15;103038.81;5035613;28;20048;-83
2022/03/15 08:07:10;;;;;;;7.22;6.55;;;;;;;19.70;38.16;103036.13;5034882;28;20046;-84
2022/03/15 08:09:38;;;;;;;9.23;7.25;;;;;;;19.69;37.92;103040.63;5031902;28;20049;-83
2022/03/15 08:12:06;;;;;;;11.75;8.05;;;;;;;19.68;38.20;103044.25;5048496;28;20053;-83
2022/03/15 08:14:33;;;;;;;8.95;7.22;;;;;;;19.65;38.52;103046.25;5048708;28;20045;-83
2022/03/15 08:17:01;;;;;;;9.80;8.70;;;;;;;19.62;38.12;103041.91;5055446;28;20049;-83
2022/03/15 08:19:29;;;;;;;12.00;8.20;;;;;;;19.59;37.83;103039.31;5054463;28;20045;-86
2022/03/15 08:22:01;;;;;;;10.85;9.10;;;;;;;19.57;38.03;103041.25;5053465;28;20049;-84
2022/03/15 08:24:28;;;;;;;10.30;9.20;;;;;;;19.55;37.59;103039.56;5053603;28;20397;-83
2022/03/15 08:26:56;;;;;;;9.57;8.60;;;;;;;19.53;37.61;103036.97;5053933;28;20476;-83
2022/03/15 08:29:23;;;;;;;9.50;8.45;;;;;;;19.53;37.69;103042.34;5054960;28;20495;-84
2022/03/15 08:31:51;;;;;;;10.57;9.15;;;;;;;19.53;37.70;103036.97;5053443;28;20079;-84
2022/03/15 08:34:19;;;;;;;9.95;9.05;;;;;;;19.51;37.63;103041.53;5052612;28;20048;-84
2022/03/15 08:36:46;;;;;;;11.25;8.98;;;;;;;19.52;37.59;103029.84;5052667;28;20048;-84
2022/03/15 08:39:15;;;;;;;10.25;8.98;;;;;;;19.51;37.55;103031.66;5051204;28;20053;-84
2022/03/15 08:41:45;;;;;;;10.13;8.35;;;;;;;19.51;37.46;103031.66;5053583;28;20045;-83
2022/03/15 08:44:12;;;;;;;9.95;8.95;;;;;;;19.51;37.63;103034.34;5053323;28;20396;-84
2022/03/15 08:46:40;;;;;;;10.77;8.55;;;;;;;19.50;37.65;103029.94;5053122;28;20049;-84
2022/03/15 08:49:09;;;;;;;9.57;8.57;;;;;;;19.50;37.48;103018.31;5054342;28;20045;-87
2022/03/15 08:51:37;;;;;;;9.70;8.77;;;;;;;19.51;37.33;103026.28;5051492;28;20045;-84
2022/03/15 08:54:04;;;;;;;8.73;7.57;;;;;;;19.50;37.56;103029.94;5053493;28;20508;-83
2022/03/15 08:56:32;;;;;;;9.27;8.27;;;;;;;19.51;37.38;103030.78;5052353;28;20519;-84
2022/03/15 08:58:59;;;;;;;8.63;7.82;;;;;;;19.51;37.55;103044.22;5053630;28;20049;-84
2022/03/15 09:01:27;;;;;;;9.43;8.40;;;;;;;19.49;37.33;103030.03;5052189;28;20053;-84
2022/03/15 09:04:01;;;;;;;11.25;8.02;;;;;;;19.49;37.42;103028.19;5056414;28;20042;-84
2022/03/15 09:06:29;;;;;;;10.77;8.65;;;;;;;19.49;37.36;103036.25;5053144;28;20404;-84
2022/03/15 09:09:00;;;;;;;10.02;8.85;;;;;;;19.50;37.45;103031.75;5053838;28;20045;-84
2022/03/15 09:11:29;;;;;;;9.52;8.35;;;;;;;19.50;37.39;103029.94;5053768;28;20041;-84
2022/03/15 09:13:57;;;;;;;10.30;8.90;;;;;;;19.49;37.50;103027.34;5052908;28;20049;-84
2022/03/15 09:16:25;;;;;;;11.25;8.63;;;;;;;19.50;37.15;103027.25;5056145;28;20052;-82
2022/03/15 09:18:53;;;;;;;9.52;8.32;;;;;;;19.50;37.30;103023.69;5056369;28;20056;-83
2022/03/15 09:21:20;;;;;;;9.93;8.93;;;;;;;19.51;37.10;103022.72;5055728;28;20044;-81
2022/03/15 09:23:48;;;;;;;10.15;8.50;;;;;;;19.51;37.21;103020.03;5054577;28;20076;-82
2022/03/15 09:26:15;;;;;;;9.00;8.10;;;;;;;19.52;37.24;103016.41;5055782;28;20373;-82
2022/03/15 09:28:44;;;;;;;10.15;8.32;;;;;;;19.52;37.21;103025.31;5055953;28;20056;-83
2022/03/15 09:31:11;;;;;;;8.63;7.72;;;;;;;19.54;37.24;103019.03;5055490;28;20067;-82
2022/03/15 09:33:39;;;;;;;8.50;7.57;;;;;;;19.53;37.17;103020.84;5055755;28;20045;-82
2022/03/15 09:36:06;;;;;;;8.50;7.65;;;;;;;19.54;37.24;103025.28;5054536;28;20037;-82
2022/03/15 09:38:34;;;;;;;8.77;7.88;;;;;;;19.55;37.37;103018.94;5055627;28;20067;-83
2022/03/15 09:41:03;;;;;;;8.85;7.60;;;;;;;19.55;37.35;103018.06;5055757;28;20048;-83
2022/03/15 09:43:45;;;;;;;9.73;7.68;;;;;;;19.55;37.41;103004.63;5055995;28;20045;-83
2022/03/15 09:46:13;;;;;;;7.80;7.00;;;;;;;19.56;37.41;103009.06;5055601;28;20060;-83
2022/03/15 09:49:01;;;;;;;16.33;14.75;;;;;;;19.55;36.02;102999.25;5056058;28;20048;-83
2022/03/15 09:51:32;;;;;;;9.32;8.43;;;;;;;19.51;37.14;103004.78;5054765;28;20389;-82
2022/03/15 09:54:02;;;;;;;10.18;8.50;;;;;;;19.54;37.13;103002.91;5055712;28;20413;-83
2022/03/15 09:56:29;;;;;;;17.83;15.50;;;;;;;19.51;36.14;102995.88;5057943;28;20416;-83
2022/03/15 09:58:57;;;;;;;9.43;8.38;;;;;;;19.49;37.19;103004.03;5058672;28;20053;-82
2022/03/15 10:01:25;;;;;;;11.52;9.55;;;;;;;19.50;36.99;103002.19;5039847;28;20072;-83
2022/03/15 10:03:52;;;;;;;10.10;8.15;;;;;;;19.50;37.18;102994.13;5033898;28;20167;-82
2022/03/15 10:06:21;;;;;;;9.30;8.00;;;;;;;19.50;37.15;103002.19;5037166;28;20511;-82
2022/03/15 10:08:48;;;;;;;10.52;7.80;;;;;;;19.52;37.17;103005.66;5037928;28;20056;-82
2022/03/15 10:11:19;;;;;;;9.23;8.10;;;;;;;19.52;37.29;102998.47;5037799;28;20046;-82
2022/03/15 10:13:47;;;;;;;8.40;7.38;;;;;;;19.53;37.33;102996.66;5022786;28;20050;-83
2022/03/15 10:16:15;;;;;;;9.75;8.75;;;;;;;19.53;37.32;102996.66;5036133;28;20037;-83
2022/03/15 10:18:55;;;;;;;8.35;7.10;;;;;;;19.53;37.38;102991.31;5034456;28;20049;-82
2022/03/15 10:21:25;;;;;;;8.25;7.03;;;;;;;19.54;37.47;102989.47;5039028;28;20049;-82
2022/03/15 10:23:57;;;;;;;8.10;6.72;;;;;;;19.54;37.27;102973.34;5036796;28;20056;-82
2022/03/15 10:26:26;;;;;;;7.03;6.33;;;;;;;19.55;37.40;102973.25;5035438;28;20037;-82
2022/03/15 10:28:56;;;;;;;9.95;6.97;;;;;;;19.55;37.31;102973.25;5034134;28;20470;-82
2022/03/15 10:31:24;;;;;;;7.53;6.60;;;;;;;19.55;37.53;102972.41;5036386;28;20060;-82
2022/03/15 10:33:54;;;;;;;8.10;7.30;;;;;;;19.55;37.38;102970.56;5035671;28;20498;-82
2022/03/15 10:36:22;;;;;;;7.47;6.65;;;;;;;19.55;37.38;102969.72;5034869;28;20041;-82
2022/03/15 10:38:51;;;;;;;7.70;6.88;;;;;;;19.56;37.57;102975.00;5034372;28;20046;-82
2022/03/15 10:41:20;;;;;;;8.38;6.68;;;;;;;19.56;37.41;102971.44;5036242;28;20060;-82
2022/03/15 10:43:53;;;;;;;8.18;7.38;;;;;;;19.56;37.51;102968.75;5036438;28;20057;-82
2022/03/15 10:46:25;;;;;;;6.70;6.10;;;;;;;19.56;37.41;102963.38;5034311;28;20473;-82
2022/03/15 10:49:03;;;;;;;8.07;7.13;;;;;;;19.56;37.67;102961.56;5019301;28;20041;-82
2022/03/15 10:51:31;;;;;;;8.43;6.93;;;;;;;19.58;37.53;102965.06;5034203;28;20053;-82
2022/03/15 10:54:02;;;;;;;8.10;6.68;;;;;;;19.57;37.66;102955.25;5035446;28;20042;-82
2022/03/15 10:56:30;;;;;;;6.65;6.05;;;;;;;19.57;37.43;102955.25;5038703;28;20056;-82
2022/03/15 10:59:09;;;;;;;6.85;6.15;;;;;;;19.58;37.36;102945.38;5034523;28;20053;-81
2022/03/15 11:01:41;;;;;;;7.40;6.13;;;;;;;19.57;37.41;102943.63;5034615;28;20041;-82
2022/03/15 11:04:10;;;;;;;8.05;6.22;;;;;;;19.58;37.50;102945.38;5034079;28;20056;-82
2022/03/15 11:06:40;;;;;;;6.90;6.22;;;;;;;19.57;37.52;102941.81;5034518;28;20052;-81
2022/03/15 11:09:26;;;;;;;7.22;6.53;;;;;;;19.57;37.55;102939.13;5033961;28;20481;-81
2022/03/15 11:12:05;;;;;;;7.57;6.32;;;;;;;19.58;37.46;102930.13;5033238;28;20397;-82
2022/03/15 11:14:40;;;;;;;12.48;7.30;;;;;;;19.58;37.75;102923.88;5034394;28;20053;-83
2022/03/15 11:17:19;;;;;;;8.95;6.30;;;;;;;19.59;37.77;102912.19;5033775;28;20049;-82
2022/03/15 11:19:52;;;;;;;7.45;6.65;;;;;;;19.59;37.74;102914.88;5031936;28;20053;-82
2022/03/15 11:22:26;;;;;;;7.85;6.28;;;;;;;19.58;37.88;102907.75;5033019;28;20068;-82
2022/03/15 11:25:03;;;;;;;6.20;5.60;;;;;;;19.59;37.83;102901.44;5032854;28;20053;-82
2022/03/15 11:27:32;;;;;;;7.88;6.20;;;;;;;19.58;37.76;102903.25;5031766;28;20060;-82
2022/03/15 11:30:03;;;;;;;9.15;6.90;;;;;;;19.57;37.65;102901.53;5033036;28;20518;-82